sensor_id;sensor_type;location;lat;lon;timestamp;temperature;humidity
12119;DHT22;6123;48.864;9.200;2023-06-22T00:01:50;21.40;99.90
12119;DHT22;6123;48.864;9.200;2023-06-22T00:04:16;21.30;99.90
12119;DHT22;6123;48.864;9.200;2023-06-22T00:06:41;21.40;99.90
12119;DHT22;6123;48.864;9.200;2023-06-22T00:09:07;21.30;99.90
12119;DHT22;6123;48.864;9.200;2023-06-22T00:11:35;21.40;99.90
12119;DHT22;6123;48.864;9.200;2023-06-22T00:14:01;21.30;99.90
12119;DHT22;6123;48.864;9.200;2023-06-22T00:16:27;21.20;99.90
12119;DHT22;6123;48.864;9.200;2023-06-22T00:18:52;21.20;99.90
12119;DHT22;6123;48.864;9.200;2023-06-22T00:21:18;21.20;99.90
12119;DHT22;6123;48.864;9.200;2023-06-22T00:23:49;21.30;99.90
12119;DHT22;6123;48.864;9.200;2023-06-22T00:26:14;21.30;99.90
12119;DHT22;6123;48.864;9.200;2023-06-22T00:28:41;21.20;99.90
12119;DHT22;6123;48.864;9.200;2023-06-22T00:31:07;21.20;99.90
12119;DHT22;6123;48.864;9.200;2023-06-22T00:33:32;21.40;99.90
12119;DHT22;6123;48.864;9.200;2023-06-22T00:35:58;21.40;99.90
12119;DHT22;6123;48.864;9.200;2023-06-22T00:38:23;21.30;99.90
12119;DHT22;6123;48.864;9.200;2023-06-22T00:40:49;21.20;99.90
12119;DHT22;6123;48.864;9.200;2023-06-22T00:43:14;21.00;99.90
12119;DHT22;6123;48.864;9.200;2023-06-22T00:45:40;21.00;99.90
12119;DHT22;6123;48.864;9.200;2023-06-22T00:48:06;21.10;99.90
12119;DHT22;6123;48.864;9.200;2023-06-22T00:50:33;21.10;99.90
12119;DHT22;6123;48.864;9.200;2023-06-22T00:53:04;20.80;99.90
12119;DHT22;6123;48.864;9.200;2023-06-22T00:55:35;21.30;99.90
12119;DHT22;6123;48.864;9.200;2023-06-22T00:58:06;21.20;99.90
12119;DHT22;6123;48.864;9.200;2023-06-22T01:00:35;21.10;99.90
12119;DHT22;6123;48.864;9.200;2023-06-22T01:03:01;20.80;99.90
12119;DHT22;6123;48.864;9.200;2023-06-22T01:05:27;20.80;99.90
12119;DHT22;6123;48.864;9.200;2023-06-22T01:07:58;20.80;99.90
12119;DHT22;6123;48.864;9.200;2023-06-22T01:10:41;20.80;99.90
12119;DHT22;6123;48.864;9.200;2023-06-22T01:16:10;20.30;99.90
12119;DHT22;6123;48.864;9.200;2023-06-22T01:18:41;20.50;99.90
12119;DHT22;6123;48.864;9.200;2023-06-22T01:21:12;20.70;99.90
12119;DHT22;6123;48.864;9.200;2023-06-22T01:23:51;20.60;99.90
12119;DHT22;6123;48.864;9.200;2023-06-22T01:26:28;20.40;99.90
12119;DHT22;6123;48.864;9.200;2023-06-22T01:29:00;20.40;99.90
12119;DHT22;6123;48.864;9.200;2023-06-22T01:31:27;20.60;99.90
12119;DHT22;6123;48.864;9.200;2023-06-22T01:33:58;20.50;99.90
12119;DHT22;6123;48.864;9.200;2023-06-22T01:36:25;20.20;99.90
12119;DHT22;6123;48.864;9.200;2023-06-22T01:38:52;20.60;99.90
12119;DHT22;6123;48.864;9.200;2023-06-22T01:41:20;20.50;99.90
12119;DHT22;6123;48.864;9.200;2023-06-22T01:43:47;20.40;99.90
12119;DHT22;6123;48.864;9.200;2023-06-22T01:46:13;20.30;99.90
12119;DHT22;6123;48.864;9.200;2023-06-22T01:48:39;20.30;99.90
12119;DHT22;6123;48.864;9.200;2023-06-22T01:51:05;20.40;99.90
12119;DHT22;6123;48.864;9.200;2023-06-22T01:53:31;20.30;99.90
12119;DHT22;6123;48.864;9.200;2023-06-22T01:55:57;20.30;99.90
12119;DHT22;6123;48.864;9.200;2023-06-22T01:58:27;20.30;99.90
12119;DHT22;6123;48.864;9.200;2023-06-22T02:01:05;20.30;99.90
12119;DHT22;6123;48.864;9.200;2023-06-22T02:03:37;20.10;99.90
12119;DHT22;6123;48.864;9.200;2023-06-22T02:06:11;20.00;99.90
12119;DHT22;6123;48.864;9.200;2023-06-22T02:08:53;20.10;99.90
12119;DHT22;6123;48.864;9.200;2023-06-22T02:11:21;20.10;99.90
12119;DHT22;6123;48.864;9.200;2023-06-22T02:13:48;20.20;99.90
12119;DHT22;6123;48.864;9.200;2023-06-22T02:16:14;20.20;99.90
12119;DHT22;6123;48.864;9.200;2023-06-22T02:18:48;19.90;99.90
12119;DHT22;6123;48.864;9.200;2023-06-22T02:21:19;19.80;99.90
12119;DHT22;6123;48.864;9.200;2023-06-22T02:23:44;19.90;99.90
12119;DHT22;6123;48.864;9.200;2023-06-22T02:26:10;19.90;99.90
12119;DHT22;6123;48.864;9.200;2023-06-22T02:28:36;20.00;99.90
12119;DHT22;6123;48.864;9.200;2023-06-22T02:31:01;20.10;99.90
12119;DHT22;6123;48.864;9.200;2023-06-22T02:33:27;20.10;99.90
12119;DHT22;6123;48.864;9.200;2023-06-22T02:35:53;20.10;99.90
12119;DHT22;6123;48.864;9.200;2023-06-22T02:38:18;20.10;99.90
12119;DHT22;6123;48.864;9.200;2023-06-22T02:40:44;20.20;99.90
12119;DHT22;6123;48.864;9.200;2023-06-22T02:43:10;20.10;99.90
12119;DHT22;6123;48.864;9.200;2023-06-22T02:45:35;20.00;99.90
12119;DHT22;6123;48.864;9.200;2023-06-22T02:48:01;20.00;99.90
12119;DHT22;6123;48.864;9.200;2023-06-22T02:50:26;20.20;99.90
12119;DHT22;6123;48.864;9.200;2023-06-22T02:52:52;19.90;99.90
12119;DHT22;6123;48.864;9.200;2023-06-22T02:55:17;19.90;99.90
12119;DHT22;6123;48.864;9.200;2023-06-22T02:57:43;19.90;99.90
12119;DHT22;6123;48.864;9.200;2023-06-22T03:00:11;19.90;99.90
12119;DHT22;6123;48.864;9.200;2023-06-22T03:02:47;20.00;99.90
12119;DHT22;6123;48.864;9.200;2023-06-22T03:05:14;19.90;99.90
12119;DHT22;6123;48.864;9.200;2023-06-22T03:07:40;19.90;99.90
12119;DHT22;6123;48.864;9.200;2023-06-22T03:10:10;19.80;99.90
12119;DHT22;6123;48.864;9.200;2023-06-22T03:12:39;19.70;99.90
12119;DHT22;6123;48.864;9.200;2023-06-22T03:15:10;19.70;99.90
12119;DHT22;6123;48.864;9.200;2023-06-22T03:17:36;19.70;99.90
12119;DHT22;6123;48.864;9.200;2023-06-22T03:20:04;19.60;99.90
12119;DHT22;6123;48.864;9.200;2023-06-22T03:22:40;19.80;99.90
12119;DHT22;6123;48.864;9.200;2023-06-22T03:25:07;19.70;99.90
12119;DHT22;6123;48.864;9.200;2023-06-22T03:27:39;19.90;99.90
12119;DHT22;6123;48.864;9.200;2023-06-22T03:30:06;19.80;99.90
12119;DHT22;6123;48.864;9.200;2023-06-22T03:32:32;19.70;99.90
12119;DHT22;6123;48.864;9.200;2023-06-22T03:34:57;19.60;99.90
12119;DHT22;6123;48.864;9.200;2023-06-22T03:37:25;19.60;99.90
12119;DHT22;6123;48.864;9.200;2023-06-22T03:39:51;19.40;99.90
12119;DHT22;6123;48.864;9.200;2023-06-22T03:42:17;19.30;99.90
12119;DHT22;6123;48.864;9.200;2023-06-22T03:44:42;19.40;99.90
12119;DHT22;6123;48.864;9.200;2023-06-22T03:47:08;19.40;99.90
12119;DHT22;6123;48.864;9.200;2023-06-22T03:49:37;19.50;99.90
12119;DHT22;6123;48.864;9.200;2023-06-22T03:52:03;19.50;99.90
12119;DHT22;6123;48.864;9.200;2023-06-22T03:54:29;19.60;99.90
12119;DHT22;6123;48.864;9.200;2023-06-22T03:56:57;19.00;99.90
12119;DHT22;6123;48.864;9.200;2023-06-22T03:59:23;19.60;99.90
12119;DHT22;6123;48.864;9.200;2023-06-22T04:01:48;19.70;99.90
12119;DHT22;6123;48.864;9.200;2023-06-22T04:04:14;19.80;99.90
12119;DHT22;6123;48.864;9.200;2023-06-22T04:06:39;19.80;99.90
12119;DHT22;6123;48.864;9.200;2023-06-22T04:09:08;19.90;99.90
12119;DHT22;6123;48.864;9.200;2023-06-22T04:11:33;19.80;99.90
12119;DHT22;6123;48.864;9.200;2023-06-22T04:13:59;19.90;99.90
12119;DHT22;6123;48.864;9.200;2023-06-22T04:16:25;19.90;99.90
12119;DHT22;6123;48.864;9.200;2023-06-22T04:18:50;19.90;99.90
12119;DHT22;6123;48.864;9.200;2023-06-22T04:21:16;20.20;99.90
12119;DHT22;6123;48.864;9.200;2023-06-22T04:23:41;20.10;99.90
12119;DHT22;6123;48.864;9.200;2023-06-22T04:26:08;20.20;99.90
12119;DHT22;6123;48.864;9.200;2023-06-22T04:28:33;20.40;99.90
12119;DHT22;6123;48.864;9.200;2023-06-22T04:31:01;20.60;99.90
12119;DHT22;6123;48.864;9.200;2023-06-22T04:33:28;20.70;99.90
12119;DHT22;6123;48.864;9.200;2023-06-22T04:35:57;20.80;99.90
12119;DHT22;6123;48.864;9.200;2023-06-22T04:38:23;20.70;99.90
12119;DHT22;6123;48.864;9.200;2023-06-22T04:40:49;20.60;99.90
12119;DHT22;6123;48.864;9.200;2023-06-22T04:43:15;20.40;99.90
12119;DHT22;6123;48.864;9.200;2023-06-22T04:45:41;20.50;99.90
12119;DHT22;6123;48.864;9.200;2023-06-22T04:48:06;20.60;99.90
12119;DHT22;6123;48.864;9.200;2023-06-22T04:50:36;20.70;99.90
12119;DHT22;6123;48.864;9.200;2023-06-22T04:53:02;20.60;99.90
12119;DHT22;6123;48.864;9.200;2023-06-22T04:55:31;20.80;99.90
12119;DHT22;6123;48.864;9.200;2023-06-22T04:57:57;20.40;99.90
12119;DHT22;6123;48.864;9.200;2023-06-22T05:00:30;20.90;99.90
12119;DHT22;6123;48.864;9.200;2023-06-22T05:02:55;20.90;99.90
12119;DHT22;6123;48.864;9.200;2023-06-22T05:05:23;20.90;99.90
12119;DHT22;6123;48.864;9.200;2023-06-22T05:07:52;21.00;99.90
12119;DHT22;6123;48.864;9.200;2023-06-22T05:10:25;21.20;99.90
12119;DHT22;6123;48.864;9.200;2023-06-22T05:12:50;21.40;99.90
12119;DHT22;6123;48.864;9.200;2023-06-22T05:15:16;21.60;99.90
12119;DHT22;6123;48.864;9.200;2023-06-22T05:17:41;21.50;99.90
12119;DHT22;6123;48.864;9.200;2023-06-22T05:20:13;21.50;99.90
12119;DHT22;6123;48.864;9.200;2023-06-22T05:22:39;21.50;99.90
12119;DHT22;6123;48.864;9.200;2023-06-22T05:25:08;21.60;99.90
12119;DHT22;6123;48.864;9.200;2023-06-22T05:27:34;21.80;99.90
12119;DHT22;6123;48.864;9.200;2023-06-22T05:30:05;21.80;99.90
12119;DHT22;6123;48.864;9.200;2023-06-22T05:32:32;21.90;99.90
12119;DHT22;6123;48.864;9.200;2023-06-22T05:34:57;21.80;99.90
12119;DHT22;6123;48.864;9.200;2023-06-22T05:37:23;21.90;99.90
12119;DHT22;6123;48.864;9.200;2023-06-22T05:39:48;21.90;99.90
12119;DHT22;6123;48.864;9.200;2023-06-22T05:42:14;22.00;99.90
12119;DHT22;6123;48.864;9.200;2023-06-22T05:44:39;22.00;99.90
12119;DHT22;6123;48.864;9.200;2023-06-22T05:47:06;22.40;99.90
12119;DHT22;6123;48.864;9.200;2023-06-22T05:49:31;22.30;99.90
12119;DHT22;6123;48.864;9.200;2023-06-22T05:51:58;22.30;99.90
12119;DHT22;6123;48.864;9.200;2023-06-22T05:54:25;22.50;99.90
12119;DHT22;6123;48.864;9.200;2023-06-22T05:56:50;22.70;99.90
12119;DHT22;6123;48.864;9.200;2023-06-22T05:59:16;22.60;99.90
12119;DHT22;6123;48.864;9.200;2023-06-22T06:01:41;22.50;99.90
12119;DHT22;6123;48.864;9.200;2023-06-22T06:04:07;22.60;99.90
12119;DHT22;6123;48.864;9.200;2023-06-22T06:06:33;22.40;99.90
12119;DHT22;6123;48.864;9.200;2023-06-22T06:09:03;22.40;99.90
12119;DHT22;6123;48.864;9.200;2023-06-22T06:11:28;22.50;99.90
12119;DHT22;6123;48.864;9.200;2023-06-22T06:13:54;22.50;99.90
12119;DHT22;6123;48.864;9.200;2023-06-22T06:16:19;22.70;99.90
12119;DHT22;6123;48.864;9.200;2023-06-22T06:18:45;22.80;99.90
12119;DHT22;6123;48.864;9.200;2023-06-22T06:21:10;22.90;99.90
12119;DHT22;6123;48.864;9.200;2023-06-22T06:23:36;23.10;99.90
12119;DHT22;6123;48.864;9.200;2023-06-22T06:26:02;23.10;99.90
12119;DHT22;6123;48.864;9.200;2023-06-22T06:28:27;23.20;99.90
12119;DHT22;6123;48.864;9.200;2023-06-22T06:30:53;23.40;99.90
12119;DHT22;6123;48.864;9.200;2023-06-22T06:33:19;23.60;99.90
12119;DHT22;6123;48.864;9.200;2023-06-22T06:35:46;23.80;99.90
12119;DHT22;6123;48.864;9.200;2023-06-22T06:38:11;23.60;99.90
12119;DHT22;6123;48.864;9.200;2023-06-22T06:40:37;23.80;99.90
12119;DHT22;6123;48.864;9.200;2023-06-22T06:43:02;24.00;99.90
12119;DHT22;6123;48.864;9.200;2023-06-22T06:45:28;24.20;99.90
12119;DHT22;6123;48.864;9.200;2023-06-22T06:47:54;24.20;99.90
12119;DHT22;6123;48.864;9.200;2023-06-22T06:50:20;24.10;99.90
12119;DHT22;6123;48.864;9.200;2023-06-22T06:52:46;24.10;99.90
12119;DHT22;6123;48.864;9.200;2023-06-22T06:55:12;24.30;99.90
12119;DHT22;6123;48.864;9.200;2023-06-22T06:57:38;24.60;99.90
12119;DHT22;6123;48.864;9.200;2023-06-22T07:00:09;24.60;99.90
12119;DHT22;6123;48.864;9.200;2023-06-22T07:02:38;24.70;99.90
12119;DHT22;6123;48.864;9.200;2023-06-22T07:05:04;24.80;99.90
12119;DHT22;6123;48.864;9.200;2023-06-22T07:07:32;25.00;99.90
12119;DHT22;6123;48.864;9.200;2023-06-22T07:09:58;25.10;99.90
12119;DHT22;6123;48.864;9.200;2023-06-22T07:12:23;25.20;99.90
12119;DHT22;6123;48.864;9.200;2023-06-22T07:14:49;25.20;99.90
12119;DHT22;6123;48.864;9.200;2023-06-22T07:17:15;25.40;99.90
12119;DHT22;6123;48.864;9.200;2023-06-22T07:19:41;25.50;99.90
12119;DHT22;6123;48.864;9.200;2023-06-22T07:22:07;25.40;99.90
12119;DHT22;6123;48.864;9.200;2023-06-22T07:24:33;25.50;99.90
12119;DHT22;6123;48.864;9.200;2023-06-22T07:26:58;25.50;99.90
12119;DHT22;6123;48.864;9.200;2023-06-22T07:29:25;25.70;99.90
12119;DHT22;6123;48.864;9.200;2023-06-22T07:31:52;25.70;99.90
12119;DHT22;6123;48.864;9.200;2023-06-22T07:34:17;25.90;99.90
12119;DHT22;6123;48.864;9.200;2023-06-22T07:36:44;26.00;99.90
12119;DHT22;6123;48.864;9.200;2023-06-22T07:39:09;26.20;99.90
12119;DHT22;6123;48.864;9.200;2023-06-22T07:41:35;26.20;99.90
12119;DHT22;6123;48.864;9.200;2023-06-22T07:44:02;26.20;99.90
12119;DHT22;6123;48.864;9.200;2023-06-22T07:46:28;26.10;99.90
12119;DHT22;6123;48.864;9.200;2023-06-22T07:48:55;26.20;99.90
12119;DHT22;6123;48.864;9.200;2023-06-22T07:51:21;26.20;99.90
12119;DHT22;6123;48.864;9.200;2023-06-22T07:53:47;26.50;99.90
12119;DHT22;6123;48.864;9.200;2023-06-22T07:56:13;26.60;99.90
12119;DHT22;6123;48.864;9.200;2023-06-22T07:58:38;26.70;99.90
12119;DHT22;6123;48.864;9.200;2023-06-22T08:01:04;26.70;99.90
12119;DHT22;6123;48.864;9.200;2023-06-22T08:03:29;26.60;99.90
12119;DHT22;6123;48.864;9.200;2023-06-22T08:05:55;26.80;99.90
12119;DHT22;6123;48.864;9.200;2023-06-22T08:08:21;26.90;99.90
12119;DHT22;6123;48.864;9.200;2023-06-22T08:10:46;26.80;99.90
12119;DHT22;6123;48.864;9.200;2023-06-22T08:13:12;26.90;99.90
12119;DHT22;6123;48.864;9.200;2023-06-22T08:15:37;27.00;99.90
12119;DHT22;6123;48.864;9.200;2023-06-22T08:18:03;27.20;99.90
12119;DHT22;6123;48.864;9.200;2023-06-22T08:20:29;27.50;99.90
12119;DHT22;6123;48.864;9.200;2023-06-22T08:22:55;27.50;99.90
12119;DHT22;6123;48.864;9.200;2023-06-22T08:25:23;27.70;99.90
12119;DHT22;6123;48.864;9.200;2023-06-22T08:27:49;27.50;99.90
12119;DHT22;6123;48.864;9.200;2023-06-22T08:30:15;27.40;99.90
12119;DHT22;6123;48.864;9.200;2023-06-22T08:32:41;27.50;99.90
12119;DHT22;6123;48.864;9.200;2023-06-22T08:35:06;27.60;99.90
12119;DHT22;6123;48.864;9.200;2023-06-22T08:37:33;27.70;99.90
12119;DHT22;6123;48.864;9.200;2023-06-22T08:40:01;27.40;99.90
12119;DHT22;6123;48.864;9.200;2023-06-22T08:42:29;27.30;99.90
12119;DHT22;6123;48.864;9.200;2023-06-22T08:44:55;27.00;99.90
12119;DHT22;6123;48.864;9.200;2023-06-22T08:47:21;26.90;99.90
12119;DHT22;6123;48.864;9.200;2023-06-22T08:49:46;26.70;99.90
12119;DHT22;6123;48.864;9.200;2023-06-22T08:52:12;26.80;99.90
12119;DHT22;6123;48.864;9.200;2023-06-22T08:54:38;26.90;99.90
12119;DHT22;6123;48.864;9.200;2023-06-22T08:57:04;27.00;99.90
12119;DHT22;6123;48.864;9.200;2023-06-22T08:59:29;27.10;99.90
12119;DHT22;6123;48.864;9.200;2023-06-22T09:01:55;27.40;99.90
12119;DHT22;6123;48.864;9.200;2023-06-22T09:04:20;27.80;99.90
12119;DHT22;6123;48.864;9.200;2023-06-22T09:06:48;28.10;99.90
12119;DHT22;6123;48.864;9.200;2023-06-22T09:09:16;28.40;99.90
12119;DHT22;6123;48.864;9.200;2023-06-22T09:11:42;28.40;99.90
12119;DHT22;6123;48.864;9.200;2023-06-22T09:14:08;28.70;99.90
12119;DHT22;6123;48.864;9.200;2023-06-22T09:16:34;28.80;99.90
12119;DHT22;6123;48.864;9.200;2023-06-22T09:19:00;28.50;99.90
12119;DHT22;6123;48.864;9.200;2023-06-22T09:21:26;28.20;99.90
12119;DHT22;6123;48.864;9.200;2023-06-22T09:23:51;27.70;99.90
12119;DHT22;6123;48.864;9.200;2023-06-22T09:26:18;28.00;99.90
12119;DHT22;6123;48.864;9.200;2023-06-22T09:28:43;28.30;99.90
12119;DHT22;6123;48.864;9.200;2023-06-22T09:31:09;28.90;99.90
12119;DHT22;6123;48.864;9.200;2023-06-22T09:33:35;29.20;99.90
12119;DHT22;6123;48.864;9.200;2023-06-22T09:36:01;29.00;99.90
12119;DHT22;6123;48.864;9.200;2023-06-22T09:38:27;29.40;99.90
12119;DHT22;6123;48.864;9.200;2023-06-22T09:40:52;29.50;99.90
12119;DHT22;6123;48.864;9.200;2023-06-22T09:43:18;29.60;99.90
12119;DHT22;6123;48.864;9.200;2023-06-22T09:45:43;29.60;99.90
12119;DHT22;6123;48.864;9.200;2023-06-22T09:48:09;29.40;99.90
12119;DHT22;6123;48.864;9.200;2023-06-22T09:50:35;29.80;99.90
12119;DHT22;6123;48.864;9.200;2023-06-22T09:53:01;29.80;99.90
12119;DHT22;6123;48.864;9.200;2023-06-22T09:55:27;30.30;99.90
12119;DHT22;6123;48.864;9.200;2023-06-22T09:57:52;30.30;99.90
12119;DHT22;6123;48.864;9.200;2023-06-22T10:00:19;30.30;99.90
12119;DHT22;6123;48.864;9.200;2023-06-22T10:02:46;30.40;99.90
12119;DHT22;6123;48.864;9.200;2023-06-22T10:05:12;30.60;99.90
12119;DHT22;6123;48.864;9.200;2023-06-22T10:07:38;30.90;99.90
12119;DHT22;6123;48.864;9.200;2023-06-22T10:10:08;31.10;99.90
12119;DHT22;6123;48.864;9.200;2023-06-22T10:12:33;30.90;99.90
12119;DHT22;6123;48.864;9.200;2023-06-22T10:14:59;30.80;99.90
12119;DHT22;6123;48.864;9.200;2023-06-22T10:17:24;30.80;99.90
12119;DHT22;6123;48.864;9.200;2023-06-22T10:19:50;30.80;99.90
12119;DHT22;6123;48.864;9.200;2023-06-22T10:22:15;30.70;99.90
12119;DHT22;6123;48.864;9.200;2023-06-22T10:24:41;30.50;99.90
12119;DHT22;6123;48.864;9.200;2023-06-22T10:27:10;30.50;99.90
12119;DHT22;6123;48.864;9.200;2023-06-22T10:29:36;30.80;99.90
12119;DHT22;6123;48.864;9.200;2023-06-22T10:32:01;30.80;99.90
12119;DHT22;6123;48.864;9.200;2023-06-22T10:34:27;31.10;99.90
12119;DHT22;6123;48.864;9.200;2023-06-22T10:36:53;31.30;99.90
12119;DHT22;6123;48.864;9.200;2023-06-22T10:39:18;31.20;99.90
12119;DHT22;6123;48.864;9.200;2023-06-22T10:41:44;31.50;99.90
12119;DHT22;6123;48.864;9.200;2023-06-22T10:44:09;31.80;99.90
12119;DHT22;6123;48.864;9.200;2023-06-22T10:46:36;31.80;99.90
12119;DHT22;6123;48.864;9.200;2023-06-22T10:49:01;32.00;99.90
12119;DHT22;6123;48.864;9.200;2023-06-22T10:51:27;32.00;99.90
12119;DHT22;6123;48.864;9.200;2023-06-22T10:53:53;32.00;99.90
12119;DHT22;6123;48.864;9.200;2023-06-22T10:56:19;31.90;99.90
12119;DHT22;6123;48.864;9.200;2023-06-22T10:58:45;31.90;99.50
12119;DHT22;6123;48.864;9.200;2023-06-22T11:01:11;32.10;99.20
12119;DHT22;6123;48.864;9.200;2023-06-22T11:03:37;32.40;99.90
12119;DHT22;6123;48.864;9.200;2023-06-22T11:06:02;32.40;98.60
12119;DHT22;6123;48.864;9.200;2023-06-22T11:08:28;32.40;99.80
12119;DHT22;6123;48.864;9.200;2023-06-22T11:10:53;32.50;99.30
12119;DHT22;6123;48.864;9.200;2023-06-22T11:13:19;32.40;99.20
12119;DHT22;6123;48.864;9.200;2023-06-22T11:15:44;32.50;98.00
12119;DHT22;6123;48.864;9.200;2023-06-22T11:18:10;32.30;98.30
12119;DHT22;6123;48.864;9.200;2023-06-22T11:20:35;32.00;99.90
12119;DHT22;6123;48.864;9.200;2023-06-22T11:23:07;31.60;99.90
12119;DHT22;6123;48.864;9.200;2023-06-22T11:25:33;31.60;99.90
12119;DHT22;6123;48.864;9.200;2023-06-22T11:28:03;31.60;99.90
12119;DHT22;6123;48.864;9.200;2023-06-22T11:30:29;31.70;99.90
12119;DHT22;6123;48.864;9.200;2023-06-22T11:32:57;31.60;99.90
12119;DHT22;6123;48.864;9.200;2023-06-22T11:35:23;31.50;99.90
12119;DHT22;6123;48.864;9.200;2023-06-22T11:37:48;31.70;99.90
12119;DHT22;6123;48.864;9.200;2023-06-22T11:40:14;31.60;99.90
12119;DHT22;6123;48.864;9.200;2023-06-22T11:42:40;31.50;99.90
12119;DHT22;6123;48.864;9.200;2023-06-22T11:45:06;31.60;99.90
12119;DHT22;6123;48.864;9.200;2023-06-22T11:47:32;31.70;99.90
12119;DHT22;6123;48.864;9.200;2023-06-22T11:49:57;31.90;99.90
12119;DHT22;6123;48.864;9.200;2023-06-22T11:52:23;31.80;99.90
12119;DHT22;6123;48.864;9.200;2023-06-22T11:54:48;31.70;99.90
12119;DHT22;6123;48.864;9.200;2023-06-22T11:57:14;31.80;99.90
12119;DHT22;6123;48.864;9.200;2023-06-22T11:59:39;31.90;99.90
12119;DHT22;6123;48.864;9.200;2023-06-22T12:02:05;31.80;99.90
12119;DHT22;6123;48.864;9.200;2023-06-22T12:04:32;31.70;99.90
12119;DHT22;6123;48.864;9.200;2023-06-22T12:06:58;31.70;99.90
12119;DHT22;6123;48.864;9.200;2023-06-22T12:09:24;31.80;99.90
12119;DHT22;6123;48.864;9.200;2023-06-22T12:11:49;31.70;99.90
12119;DHT22;6123;48.864;9.200;2023-06-22T12:14:15;31.60;99.90
12119;DHT22;6123;48.864;9.200;2023-06-22T12:16:40;31.40;99.90
12119;DHT22;6123;48.864;9.200;2023-06-22T12:19:06;31.50;99.90
12119;DHT22;6123;48.864;9.200;2023-06-22T12:21:31;31.30;99.90
12119;DHT22;6123;48.864;9.200;2023-06-22T12:23:57;31.00;99.90
12119;DHT22;6123;48.864;9.200;2023-06-22T12:26:22;30.90;99.90
12119;DHT22;6123;48.864;9.200;2023-06-22T12:28:48;31.10;99.90
12119;DHT22;6123;48.864;9.200;2023-06-22T12:31:14;31.10;99.90
12119;DHT22;6123;48.864;9.200;2023-06-22T12:33:39;31.30;99.90
12119;DHT22;6123;48.864;9.200;2023-06-22T12:36:05;31.30;99.90
12119;DHT22;6123;48.864;9.200;2023-06-22T12:38:30;31.30;99.90
12119;DHT22;6123;48.864;9.200;2023-06-22T12:40:56;31.30;99.90
12119;DHT22;6123;48.864;9.200;2023-06-22T12:43:21;31.50;99.90
12119;DHT22;6123;48.864;9.200;2023-06-22T12:45:47;31.30;99.90
12119;DHT22;6123;48.864;9.200;2023-06-22T12:48:12;30.90;99.90
12119;DHT22;6123;48.864;9.200;2023-06-22T12:50:38;31.00;99.90
12119;DHT22;6123;48.864;9.200;2023-06-22T12:53:04;31.20;99.90
12119;DHT22;6123;48.864;9.200;2023-06-22T12:55:31;31.20;99.90
12119;DHT22;6123;48.864;9.200;2023-06-22T12:57:57;31.30;99.90
12119;DHT22;6123;48.864;9.200;2023-06-22T13:00:22;31.20;99.90
12119;DHT22;6123;48.864;9.200;2023-06-22T13:02:48;31.10;99.90
12119;DHT22;6123;48.864;9.200;2023-06-22T13:05:14;30.90;99.90
12119;DHT22;6123;48.864;9.200;2023-06-22T13:07:39;30.80;99.90
12119;DHT22;6123;48.864;9.200;2023-06-22T13:10:05;30.70;99.90
12119;DHT22;6123;48.864;9.200;2023-06-22T13:12:30;30.60;99.90
12119;DHT22;6123;48.864;9.200;2023-06-22T13:14:56;30.70;99.90
12119;DHT22;6123;48.864;9.200;2023-06-22T13:17:22;30.90;99.90
12119;DHT22;6123;48.864;9.200;2023-06-22T13:19:47;30.80;99.90
12119;DHT22;6123;48.864;9.200;2023-06-22T13:22:45;30.90;99.90
12119;DHT22;6123;48.864;9.200;2023-06-22T13:25:11;30.70;99.90
12119;DHT22;6123;48.864;9.200;2023-06-22T13:27:41;30.90;99.90
12119;DHT22;6123;48.864;9.200;2023-06-22T13:30:08;31.10;99.90
12119;DHT22;6123;48.864;9.200;2023-06-22T13:32:33;31.30;99.90
12119;DHT22;6123;48.864;9.200;2023-06-22T13:34:59;31.40;99.90
12119;DHT22;6123;48.864;9.200;2023-06-22T13:37:25;31.60;99.90
12119;DHT22;6123;48.864;9.200;2023-06-22T13:39:51;31.80;99.90
12119;DHT22;6123;48.864;9.200;2023-06-22T13:42:16;31.90;99.60
12119;DHT22;6123;48.864;9.200;2023-06-22T13:44:42;31.90;99.20
12119;DHT22;6123;48.864;9.200;2023-06-22T13:47:07;31.90;99.60
12119;DHT22;6123;48.864;9.200;2023-06-22T13:49:33;32.10;99.90
12119;DHT22;6123;48.864;9.200;2023-06-22T13:51:59;32.00;99.10
12119;DHT22;6123;48.864;9.200;2023-06-22T13:54:25;31.70;99.60
12119;DHT22;6123;48.864;9.200;2023-06-22T13:56:50;31.80;99.90
12119;DHT22;6123;48.864;9.200;2023-06-22T13:59:16;32.00;99.90
12119;DHT22;6123;48.864;9.200;2023-06-22T14:01:41;31.80;99.90
12119;DHT22;6123;48.864;9.200;2023-06-22T14:04:08;31.80;99.90
12119;DHT22;6123;48.864;9.200;2023-06-22T14:06:34;31.80;99.90
12119;DHT22;6123;48.864;9.200;2023-06-22T14:08:59;31.90;99.90
12119;DHT22;6123;48.864;9.200;2023-06-22T14:11:25;31.90;99.90
12119;DHT22;6123;48.864;9.200;2023-06-22T14:13:50;32.00;99.90
12119;DHT22;6123;48.864;9.200;2023-06-22T14:16:16;32.10;99.90
12119;DHT22;6123;48.864;9.200;2023-06-22T14:18:42;32.00;99.90
12119;DHT22;6123;48.864;9.200;2023-06-22T14:21:08;31.90;99.90
12119;DHT22;6123;48.864;9.200;2023-06-22T14:23:33;32.00;99.90
12119;DHT22;6123;48.864;9.200;2023-06-22T14:25:59;32.20;99.90
12119;DHT22;6123;48.864;9.200;2023-06-22T14:28:25;32.40;99.90
12119;DHT22;6123;48.864;9.200;2023-06-22T14:30:50;32.60;99.10
12119;DHT22;6123;48.864;9.200;2023-06-22T14:33:16;32.80;98.90
12119;DHT22;6123;48.864;9.200;2023-06-22T14:35:41;32.90;98.60
12119;DHT22;6123;48.864;9.200;2023-06-22T14:38:07;32.60;97.90
12119;DHT22;6123;48.864;9.200;2023-06-22T14:40:32;32.50;96.80
12119;DHT22;6123;48.864;9.200;2023-06-22T14:42:58;32.50;96.00
12119;DHT22;6123;48.864;9.200;2023-06-22T14:45:24;32.70;96.30
12119;DHT22;6123;48.864;9.200;2023-06-22T14:47:49;32.60;96.70
12119;DHT22;6123;48.864;9.200;2023-06-22T14:50:15;32.50;96.30
12119;DHT22;6123;48.864;9.200;2023-06-22T14:52:40;32.60;95.40
12119;DHT22;6123;48.864;9.200;2023-06-22T14:55:06;33.10;94.80
12119;DHT22;6123;48.864;9.200;2023-06-22T14:57:32;33.50;93.10
12119;DHT22;6123;48.864;9.200;2023-06-22T14:59:57;33.00;92.80
12119;DHT22;6123;48.864;9.200;2023-06-22T15:02:23;32.90;93.00
12119;DHT22;6123;48.864;9.200;2023-06-22T15:04:49;33.20;90.30
12119;DHT22;6123;48.864;9.200;2023-06-22T15:07:14;33.50;90.00
12119;DHT22;6123;48.864;9.200;2023-06-22T15:09:40;33.50;74.70
12119;DHT22;6123;48.864;9.200;2023-06-22T15:12:08;33.40;67.60
12119;DHT22;6123;48.864;9.200;2023-06-22T15:14:40;33.50;63.50
12119;DHT22;6123;48.864;9.200;2023-06-22T15:17:06;33.40;58.80
12119;DHT22;6123;48.864;9.200;2023-06-22T15:19:37;33.30;57.90
12119;DHT22;6123;48.864;9.200;2023-06-22T15:22:07;33.60;56.70
12119;DHT22;6123;48.864;9.200;2023-06-22T15:24:33;33.30;56.10
12119;DHT22;6123;48.864;9.200;2023-06-22T15:26:59;33.50;55.50
12119;DHT22;6123;48.864;9.200;2023-06-22T15:29:24;33.50;56.00
12119;DHT22;6123;48.864;9.200;2023-06-22T15:31:51;33.30;56.10
12119;DHT22;6123;48.864;9.200;2023-06-22T15:34:17;33.30;54.90
12119;DHT22;6123;48.864;9.200;2023-06-22T15:36:43;33.30;54.00
12119;DHT22;6123;48.864;9.200;2023-06-22T15:39:09;33.50;53.90
12119;DHT22;6123;48.864;9.200;2023-06-22T15:41:35;33.80;53.00
12119;DHT22;6123;48.864;9.200;2023-06-22T15:44:00;33.60;53.30